Time;durP1;ratioP1;P1;durP2;ratioP2;P2;SDS_P1;SDS_P2;PMS_P1;PMS_P2;Temp;Humidity;BMP_temperature;BMP_pressure;BME280_temperature;BME280_humidity;BME280_pressure;Samples;Min_cycle;Max_cycle;Signal;HPM_P1;HPM_P2
2022/09/10 00:00:39;;;;;;;14.30;5.13;;;;;;;13.88;97.84;100816.16;5005572;28;20039;-87
2022/09/10 00:03:06;;;;;;;11.88;5.18;;;;;;;13.90;97.79;100814.16;5008599;28;20042;-87
2022/09/10 00:05:43;;;;;;;12.02;5.63;;;;;;;13.92;97.94;100817.63;5008653;28;20034;-87
2022/09/10 00:08:09;;;;;;;11.90;5.53;;;;;;;13.97;98.32;100820.81;5010571;28;20030;-87
2022/09/10 00:10:43;;;;;;;12.85;5.60;;;;;;;13.96;97.65;100816.38;4975577;28;20061;-87
2022/09/10 00:13:09;;;;;;;14.38;5.32;;;;;;;14.02;97.72;100829.50;5009146;28;20370;-87
2022/09/10 00:15:38;;;;;;;10.40;5.25;;;;;;;14.01;98.08;100807.75;4995386;28;20381;-87
2022/09/10 00:18:04;;;;;;;13.07;5.15;;;;;;;13.99;97.75;100810.63;4995802;28;20037;-87
2022/09/10 00:20:30;;;;;;;16.17;5.65;;;;;;;14.00;98.05;100801.41;5009953;28;20048;-87
2022/09/10 00:22:55;;;;;;;11.95;5.50;;;;;;;13.98;97.82;100800.66;5006943;28;20057;-87
2022/09/10 00:25:20;;;;;;;10.45;5.05;;;;;;;14.03;97.43;100806.63;5024139;28;20025;-87
2022/09/10 00:27:46;;;;;;;12.63;5.03;;;;;;;13.97;97.17;100806.28;5024527;28;20144;-87
2022/09/10 00:30:12;;;;;;;14.50;5.53;;;;;;;13.96;97.09;100804.56;5007713;28;20044;-87
2022/09/10 00:32:37;;;;;;;11.38;5.50;;;;;;;13.98;97.75;100814.34;5009546;28;20488;-87
2022/09/10 00:35:03;;;;;;;12.23;5.40;;;;;;;13.99;98.04;100804.31;5007518;28;20033;-87
2022/09/10 00:37:29;;;;;;;14.95;6.43;;;;;;;13.97;97.93;100809.00;5020619;28;20278;-87
2022/09/10 00:39:55;;;;;;;12.48;6.13;;;;;;;13.96;97.63;100810.88;5011508;28;20098;-87
2022/09/10 00:42:21;;;;;;;13.07;4.88;;;;;;;13.97;97.48;100807.16;5007040;28;20088;-87
2022/09/10 00:44:55;;;;;;;14.32;5.38;;;;;;;13.97;97.87;100809.88;5009357;28;20037;-88
2022/09/10 00:47:36;;;;;;;13.65;5.15;;;;;;;13.96;97.92;100810.88;5023213;28;20044;-88
2022/09/10 00:50:25;;;;;;;13.60;5.65;;;;;;;13.96;98.35;100807.28;5008774;28;20374;-87
2022/09/10 00:52:53;;;;;;;11.10;5.03;;;;;;;13.95;97.84;100811.91;4988726;28;20052;-87
2022/09/10 00:55:20;;;;;;;13.43;6.43;;;;;;;13.92;98.17;100798.47;5008777;28;20053;-87
2022/09/10 00:57:47;;;;;;;18.17;5.53;;;;;;;13.94;98.15;100807.44;5023773;28;20160;-87
2022/09/10 01:00:14;;;;;;;13.05;5.68;;;;;;;13.94;98.14;100810.16;5008841;28;20120;-87
2022/09/10 01:02:40;;;;;;;11.52;5.78;;;;;;;13.94;98.18;100806.53;5008096;28;20029;-87
2022/09/10 01:05:07;;;;;;;10.93;6.10;;;;;;;13.97;98.31;100818.09;5011023;28;20106;-87
2022/09/10 01:07:34;;;;;;;12.68;6.10;;;;;;;13.96;98.48;100815.50;4989765;28;20034;-86
2022/09/10 01:10:11;;;;;;;12.40;5.68;;;;;;;13.99;98.45;100824.31;4992703;28;20130;-87
2022/09/10 01:13:05;;;;;;;12.52;6.35;;;;;;;14.01;98.46;100821.44;4988298;28;20061;-87
2022/09/10 01:15:48;;;;;;;14.02;5.75;;;;;;;14.01;98.42;100825.03;4992089;28;20042;-87
2022/09/10 01:18:42;;;;;;;11.75;6.43;;;;;;;14.01;98.56;100816.81;4990676;28;20025;-87
2022/09/10 01:21:22;;;;;;;16.10;6.35;;;;;;;14.04;98.65;100819.31;4991519;28;20034;-87
2022/09/10 01:24:25;;;;;;;10.95;5.78;;;;;;;14.08;98.14;100824.47;4993884;28;20536;-87
2022/09/10 01:27:09;;;;;;;10.18;6.88;;;;;;;14.10;98.29;100823.34;5008399;28;20542;-87
2022/09/10 01:29:52;;;;;;;17.73;7.15;;;;;;;14.09;98.88;100818.03;5002876;28;20048;-86
2022/09/10 01:32:39;;;;;;;13.40;6.07;;;;;;;14.11;99.21;100819.63;5010596;28;20029;-86
2022/09/10 01:35:13;;;;;;;14.02;6.90;;;;;;;14.10;98.79;100819.75;5007354;28;20497;-86
2022/09/10 01:37:42;;;;;;;13.63;7.13;;;;;;;14.13;99.21;100830.41;5003291;28;20046;-86
2022/09/10 01:40:09;;;;;;;18.25;6.90;;;;;;;14.10;99.19;100826.09;4990773;28;20057;-86
2022/09/10 01:42:39;;;;;;;13.50;7.40;;;;;;;14.11;99.44;100821.50;4992823;28;20518;-86
2022/09/10 01:45:05;;;;;;;14.80;7.65;;;;;;;14.13;99.84;100816.75;5005913;28;20034;-86
2022/09/10 01:48:02;;;;;;;14.30;7.03;;;;;;;14.16;99.20;100827.41;5023655;28;20030;-86
2022/09/10 01:50:57;;;;;;;14.25;7.70;;;;;;;14.17;99.38;100823.69;4994623;28;20079;-87
2022/09/10 01:53:23;;;;;;;13.10;8.35;;;;;;;14.19;99.48;100824.44;5013970;28;20124;-86
2022/09/10 01:56:10;;;;;;;17.42;7.95;;;;;;;14.21;99.38;100823.28;5005885;28;20117;-86
2022/09/10 01:58:42;;;;;;;15.02;7.57;;;;;;;14.16;99.95;100814.59;5002317;28;20124;-87
2022/09/10 02:01:21;;;;;;;14.23;7.78;;;;;;;14.22;99.92;100816.81;4990403;28;20440;-87
2022/09/10 02:03:49;;;;;;;15.98;7.82;;;;;;;14.18;99.85;100809.88;4993716;28;20354;-86
2022/09/10 02:06:18;;;;;;;14.63;7.55;;;;;;;14.20;99.88;100813.34;5007278;28;20041;-86
2022/09/10 02:08:50;;;;;;;16.15;8.63;;;;;;;14.19;100.00;100808.88;5008888;28;20056;-86
2022/09/10 02:11:15;;;;;;;14.75;7.78;;;;;;;14.21;100.00;100812.31;4993097;28;20044;-86
2022/09/10 02:13:46;;;;;;;22.02;8.48;;;;;;;14.25;100.00;100810.19;5020578;28;20416;-86
2022/09/10 02:16:34;;;;;;;15.05;8.38;;;;;;;14.26;100.00;100800.97;5007880;28;20117;-86
2022/09/10 02:19:01;;;;;;;17.05;7.55;;;;;;;14.25;99.99;100808.31;4982419;28;20485;-86
2022/09/10 02:21:26;;;;;;;17.23;8.07;;;;;;;14.24;99.87;100800.25;4990456;28;20104;-87
2022/09/10 02:24:01;;;;;;;16.45;9.32;;;;;;;14.28;100.00;100804.47;5004728;28;20441;-87
2022/09/10 02:26:26;;;;;;;15.82;8.75;;;;;;;14.24;100.00;100792.91;4986017;28;20030;-87
2022/09/10 02:28:53;;;;;;;16.20;8.15;;;;;;;14.27;100.00;100797.25;5005255;28;20056;-86
2022/09/10 02:31:19;;;;;;;16.67;8.45;;;;;;;14.24;100.00;100787.44;4993343;28;20204;-87
2022/09/10 02:33:45;;;;;;;15.60;8.68;;;;;;;14.28;100.00;100790.78;5010216;28;20199;-87
2022/09/10 02:36:10;;;;;;;17.85;9.15;;;;;;;14.29;100.00;100789.75;4977466;28;20018;-87
2022/09/10 02:38:37;;;;;;;14.65;8.88;;;;;;;14.30;100.00;100792.34;5004799;28;20029;-87
2022/09/10 02:41:02;;;;;;;18.65;9.05;;;;;;;14.27;100.00;100789.91;5013627;28;20400;-86
2022/09/10 02:43:29;;;;;;;19.67;8.52;;;;;;;14.26;100.00;100790.88;5012716;28;20036;-86
2022/09/10 02:45:58;;;;;;;20.17;9.18;;;;;;;14.30;100.00;100789.63;5013867;28;20025;-86
2022/09/10 02:48:25;;;;;;;20.65;9.43;;;;;;;14.33;100.00;100801.31;4997405;28;20110;-86
2022/09/10 02:50:53;;;;;;;18.58;9.30;;;;;;;14.32;100.00;100800.44;5025292;28;20418;-86
2022/09/10 02:53:19;;;;;;;16.75;9.48;;;;;;;14.35;100.00;100797.41;4991653;28;20346;-86
2022/09/10 02:55:48;;;;;;;17.65;9.10;;;;;;;14.32;100.00;100788.63;4977251;28;20087;-86
2022/09/10 02:58:15;;;;;;;18.38;9.75;;;;;;;14.34;100.00;100794.81;5028007;28;20120;-85
2022/09/10 03:00:41;;;;;;;15.25;8.90;;;;;;;14.40;100.00;100802.47;5009957;28;20037;-86
2022/09/10 03:03:07;;;;;;;19.25;9.00;;;;;;;14.39;100.00;100793.41;5012123;28;20473;-86
2022/09/10 03:05:35;;;;;;;16.67;9.25;;;;;;;14.38;100.00;100794.41;5011535;28;20042;-85
2022/09/10 03:08:01;;;;;;;17.38;9.07;;;;;;;14.42;100.00;100795.88;5011880;28;20516;-86
2022/09/10 03:10:28;;;;;;;14.77;9.18;;;;;;;14.43;100.00;100797.63;5013033;28;20068;-86
2022/09/10 03:12:54;;;;;;;19.33;9.05;;;;;;;14.45;100.00;100795.59;5007902;28;20038;-87
2022/09/10 03:15:19;;;;;;;22.13;10.18;;;;;;;14.46;100.00;100799.22;5010210;28;20406;-86
2022/09/10 03:17:46;;;;;;;20.25;10.10;;;;;;;14.46;100.00;100794.59;5011883;28;20029;-86
2022/09/10 03:20:11;;;;;;;16.77;9.80;;;;;;;14.43;100.00;100785.81;5008656;28;20371;-86
2022/09/10 03:22:37;;;;;;;18.55;9.23;;;;;;;14.45;100.00;100792.84;5005753;28;20042;-87
2022/09/10 03:25:03;;;;;;;21.40;9.73;;;;;;;14.46;100.00;100791.88;4992664;28;20029;-87
2022/09/10 03:27:29;;;;;;;18.08;10.25;;;;;;;14.45;100.00;100795.59;4976229;28;20072;-86
2022/09/10 03:29:55;;;;;;;19.00;10.35;;;;;;;14.45;100.00;100792.84;4990846;28;20068;-86
2022/09/10 03:32:22;;;;;;;21.08;10.48;;;;;;;14.48;100.00;100802.72;4977354;28;20045;-86
2022/09/10 03:34:48;;;;;;;22.42;11.27;;;;;;;14.51;100.00;100802.44;4991003;28;20033;-86
2022/09/10 03:37:15;;;;;;;18.02;10.27;;;;;;;14.51;100.00;100802.44;4994220;28;20124;-87
2022/09/10 03:39:41;;;;;;;18.92;9.88;;;;;;;14.49;100.00;100790.75;4977088;28;20044;-86
2022/09/10 03:42:06;;;;;;;18.05;10.63;;;;;;;14.51;100.00;100796.97;5025385;28;20033;-87
2022/09/10 03:44:32;;;;;;;19.17;10.65;;;;;;;14.48;100.00;100789.03;4992372;28;20037;-87
2022/09/10 03:47:01;;;;;;;19.73;10.00;;;;;;;14.48;100.00;100787.16;4986061;28;20017;-86
2022/09/10 03:49:27;;;;;;;20.48;10.52;;;;;;;14.50;100.00;100792.47;4995866;28;20048;-86
2022/09/10 03:51:53;;;;;;;19.90;11.02;;;;;;;14.51;100.00;100788.75;5023403;28;20045;-86
2022/09/10 03:54:19;;;;;;;24.02;11.02;;;;;;;14.47;100.00;100784.53;4994240;28;20107;-86
2022/09/10 03:56:45;;;;;;;23.77;11.65;;;;;;;14.51;100.00;100788.75;5011888;28;20385;-86
2022/09/10 03:59:14;;;;;;;19.75;12.18;;;;;;;14.48;100.00;100783.53;5002398;28;20034;-86
2022/09/10 04:01:40;;;;;;;20.75;11.13;;;;;;;14.51;100.00;100791.50;4976016;28;20030;-86
2022/09/10 04:04:07;;;;;;;22.75;11.43;;;;;;;14.51;100.00;100786.88;5000845;28;20083;-86
2022/09/10 04:06:34;;;;;;;26.23;12.40;;;;;;;14.53;100.00;100792.22;5000769;28;20042;-86
2022/09/10 04:09:00;;;;;;;16.67;11.13;;;;;;;14.52;100.00;100780.41;5002737;28;20455;-86
2022/09/10 04:11:27;;;;;;;19.42;12.77;;;;;;;14.51;100.00;100767.72;5003809;28;20440;-86
2022/09/10 04:13:55;;;;;;;19.95;12.38;;;;;;;14.53;100.00;100779.38;4988535;28;20061;-86
2022/09/10 04:16:22;;;;;;;24.75;13.57;;;;;;;14.55;100.00;100776.53;4988713;28;20517;-86
2022/09/10 04:18:48;;;;;;;20.85;13.27;;;;;;;14.55;100.00;100776.53;5004564;28;20027;-86
2022/09/10 04:21:14;;;;;;;25.10;13.48;;;;;;;14.55;100.00;100768.31;4992291;28;20058;-86
2022/09/10 04:23:40;;;;;;;24.42;12.80;;;;;;;14.54;100.00;100772.91;4990704;28;20049;-86
2022/09/10 04:26:14;;;;;;;25.13;12.82;;;;;;;14.56;100.00;100769.19;5002506;28;20046;-86
2022/09/10 04:28:40;;;;;;;22.90;13.20;;;;;;;14.56;100.00;100770.03;5005321;28;20041;-86
2022/09/10 04:31:06;;;;;;;25.42;13.07;;;;;;;14.57;100.00;100760.81;5006091;28;20112;-86
2022/09/10 04:33:32;;;;;;;25.60;12.82;;;;;;;14.57;100.00;100771.75;4992234;28;20025;-86
2022/09/10 04:36:01;;;;;;;19.70;12.82;;;;;;;14.58;100.00;100768.00;5006457;28;20517;-86
2022/09/10 04:38:29;;;;;;;20.88;11.88;;;;;;;14.57;100.00;100770.91;4990736;28;20478;-86
2022/09/10 04:41:02;;;;;;;26.75;12.45;;;;;;;14.60;100.00;100778.84;4988445;28;20052;-86
2022/09/10 04:43:27;;;;;;;25.33;14.88;;;;;;;14.61;100.00;100772.38;5006792;28;20033;-86
2022/09/10 04:45:54;;;;;;;27.33;13.15;;;;;;;14.58;100.00;100780.84;4991292;28;20121;-86
2022/09/10 04:48:23;;;;;;;19.60;12.35;;;;;;;14.63;100.00;100782.16;5007764;28;20032;-86
2022/09/10 04:50:49;;;;;;;21.67;13.07;;;;;;;14.63;100.00;100786.75;4989721;28;20084;-86
2022/09/10 04:53:16;;;;;;;23.35;12.88;;;;;;;14.62;100.00;100785.91;5002777;28;20054;-86
2022/09/10 04:55:45;;;;;;;22.23;13.02;;;;;;;14.64;100.00;100793.97;5004145;28;20034;-86
2022/09/10 04:58:12;;;;;;;23.25;13.63;;;;;;;14.62;100.00;100785.91;5005440;28;20113;-86
2022/09/10 05:00:38;;;;;;;22.55;13.32;;;;;;;14.63;100.00;100782.16;4988391;28;20033;-86
2022/09/10 05:03:05;;;;;;;19.30;12.60;;;;;;;14.64;100.00;100786.66;4984232;28;20085;-86
2022/09/10 05:05:32;;;;;;;20.92;13.90;;;;;;;14.64;100.00;100783.00;5006700;28;20042;-86
2022/09/10 05:08:03;;;;;;;28.30;13.20;;;;;;;14.64;100.00;100783.00;4987163;28;20030;-86
2022/09/10 05:10:29;;;;;;;20.63;12.80;;;;;;;14.63;100.00;100784.88;4972420;28;20093;-86
2022/09/10 05:12:55;;;;;;;30.25;14.40;;;;;;;14.67;100.00;100775.41;5004144;28;20040;-86
2022/09/10 05:15:23;;;;;;;24.48;14.25;;;;;;;14.67;100.00;100778.13;4988534;28;20779;-86
2022/09/10 05:17:48;;;;;;;22.60;13.43;;;;;;;14.64;100.00;100770.22;4972357;28;20037;-86
2022/09/10 05:20:14;;;;;;;26.75;12.90;;;;;;;14.63;100.00;100771.19;4999258;28;20034;-86
2022/09/10 05:22:46;;;;;;;24.65;13.85;;;;;;;14.69;100.00;100775.28;5001651;28;20026;-86
2022/09/10 05:25:12;;;;;;;24.77;13.35;;;;;;;14.68;100.00;100773.53;5001326;28;20034;-86
2022/09/10 05:27:37;;;;;;;27.10;14.02;;;;;;;14.70;100.00;100775.13;5001124;28;20026;-86
2022/09/10 05:30:04;;;;;;;26.77;13.48;;;;;;;14.69;100.00;100776.13;4991069;28;20044;-86
2022/09/10 05:32:31;;;;;;;22.98;14.40;;;;;;;14.74;100.00;100783.94;4991834;28;20038;-86
2022/09/10 05:34:57;;;;;;;25.83;14.95;;;;;;;14.71;100.00;100776.84;5011855;28;20021;-86
2022/09/10 05:37:23;;;;;;;24.35;14.02;;;;;;;14.74;100.00;100787.53;5012741;28;20037;-86
2022/09/10 05:39:48;;;;;;;22.15;13.40;;;;;;;14.75;100.00;100777.44;4995970;28;20072;-86
2022/09/10 05:42:14;;;;;;;30.75;15.30;;;;;;;14.74;100.00;100775.72;4989505;28;20026;-86
2022/09/10 05:44:41;;;;;;;24.75;15.38;;;;;;;14.75;100.00;100767.34;5006669;28;20771;-86
2022/09/10 05:47:07;;;;;;;23.80;15.35;;;;;;;14.80;100.00;100783.38;5005752;28;20045;-86
2022/09/10 05:49:33;;;;;;;24.63;15.05;;;;;;;14.79;100.00;100779.78;5006815;28;20033;-86
2022/09/10 05:51:59;;;;;;;27.33;15.05;;;;;;;14.84;100.00;100779.34;5005810;28;20033;-86
2022/09/10 05:54:25;;;;;;;27.33;15.57;;;;;;;14.84;100.00;100784.81;4992920;28;20060;-86
2022/09/10 05:56:50;;;;;;;27.40;15.02;;;;;;;14.86;100.00;100782.81;5005388;28;20037;-86
2022/09/10 05:59:16;;;;;;;27.23;15.88;;;;;;;14.89;100.00;100778.94;5001895;28;20030;-87
2022/09/10 06:01:50;;;;;;;26.83;15.32;;;;;;;14.93;100.00;100780.38;4987604;28;20029;-87
2022/09/10 06:04:17;;;;;;;27.80;15.95;;;;;;;14.91;100.00;100780.50;5002719;28;20123;-86
2022/09/10 06:06:44;;;;;;;26.67;15.20;;;;;;;14.94;100.00;100782.97;4978251;28;20038;-85
2022/09/10 06:09:11;;;;;;;28.88;16.13;;;;;;;14.97;100.00;100784.56;5000611;28;20166;-85
2022/09/10 06:11:43;;;;;;;25.40;14.57;;;;;;;15.03;100.00;100795.81;4991754;28;20476;-86
2022/09/10 06:14:09;;;;;;;25.85;15.85;;;;;;;15.04;100.00;100785.72;5010484;28;20025;-86
2022/09/10 06:16:34;;;;;;;24.20;15.55;;;;;;;15.10;100.00;100789.75;5030322;28;20096;-86
2022/09/10 06:19:00;;;;;;;26.58;15.77;;;;;;;15.07;100.00;100787.34;5011702;28;20033;-86
2022/09/10 06:21:28;;;;;;;25.48;15.07;;;;;;;15.07;100.00;100784.59;5012578;28;20030;-86
2022/09/10 06:23:54;;;;;;;29.10;16.17;;;;;;;15.07;100.00;100795.56;4994767;28;20026;-87
2022/09/10 06:26:20;;;;;;;21.65;15.10;;;;;;;15.04;100.00;100788.47;4995530;28;20071;-86
2022/09/10 06:28:48;;;;;;;19.90;13.55;;;;;;;15.00;100.00;100790.63;5012319;28;20377;-86
2022/09/10 06:31:18;;;;;;;24.33;14.52;;;;;;;15.01;100.00;100800.59;5013003;28;20061;-86
2022/09/10 06:33:45;;;;;;;23.10;14.85;;;;;;;15.01;100.00;100803.34;5008255;28;20029;-86
2022/09/10 06:36:12;;;;;;;22.35;14.43;;;;;;;15.01;100.00;100796.97;5010445;28;20038;-86
2022/09/10 06:38:39;;;;;;;27.23;16.23;;;;;;;15.03;100.00;100800.44;4995212;28;20814;-86
2022/09/10 06:41:07;;;;;;;28.20;17.02;;;;;;;15.03;100.00;100809.53;5012278;28;20034;-86
2022/09/10 06:43:40;;;;;;;21.17;14.70;;;;;;;15.03;100.00;100809.53;5010886;28;20037;-86
2022/09/10 06:46:17;;;;;;;27.65;16.50;;;;;;;15.03;100.00;100811.41;5014063;28;20381;-86
2022/09/10 06:49:03;;;;;;;23.10;16.17;;;;;;;15.04;100.00;100802.16;5012724;28;20505;-86
2022/09/10 06:51:32;;;;;;;27.30;15.85;;;;;;;15.02;100.00;100809.69;4994797;28;20445;-87
2022/09/10 06:54:00;;;;;;;23.35;16.15;;;;;;;15.04;100.00;100811.25;5011600;28;20033;-86
2022/09/10 06:56:26;;;;;;;26.13;16.42;;;;;;;15.03;100.00;100805.91;5012538;28;20037;-85
2022/09/10 06:58:51;;;;;;;23.63;15.88;;;;;;;15.04;100.00;100813.13;5011434;28;20392;-86
2022/09/10 07:01:18;;;;;;;23.42;16.17;;;;;;;15.04;100.00;100808.50;4996621;28;20037;-86
2022/09/10 07:03:56;;;;;;;26.00;16.63;;;;;;;15.00;100.00;100801.56;5011815;28;20477;-86
2022/09/10 07:06:24;;;;;;;26.38;16.30;;;;;;;15.09;100.00;100818.19;5025439;28;20091;-86
2022/09/10 07:08:55;;;;;;;28.00;17.27;;;;;;;15.08;100.00;100810.97;5043275;28;20546;-86
2022/09/10 07:11:21;;;;;;;24.23;16.25;;;;;;;15.16;100.00;100816.63;4996986;28;20029;-86
2022/09/10 07:13:51;;;;;;;27.25;16.55;;;;;;;15.19;100.00;100813.59;4992227;28;20026;-86
2022/09/10 07:16:22;;;;;;;25.67;16.30;;;;;;;15.23;100.00;100810.41;4984509;28;20052;-86
2022/09/10 07:18:54;;;;;;;25.17;15.48;;;;;;;15.23;100.00;100818.63;5031126;28;20044;-86
2022/09/10 07:21:24;;;;;;;21.50;15.02;;;;;;;15.22;100.00;100818.78;4993518;28;20480;-86
2022/09/10 07:23:57;;;;;;;19.40;14.07;;;;;;;15.23;100.00;100826.00;5008974;28;20025;-86
2022/09/10 07:26:23;;;;;;;21.80;14.15;;;;;;;15.22;100.00;100829.75;5043484;28;20029;-86
2022/09/10 07:28:52;;;;;;;19.48;15.15;;;;;;;15.21;100.00;100834.38;4992480;28;20044;-87
2022/09/10 07:31:29;;;;;;;23.27;15.50;;;;;;;15.22;100.00;100832.50;4993356;28;20433;-87
2022/09/10 07:34:00;;;;;;;24.35;15.82;;;;;;;15.20;100.00;100827.16;5010501;28;20814;-86
2022/09/10 07:36:27;;;;;;;23.10;15.98;;;;;;;15.22;100.00;100830.63;4986562;28;20038;-86
2022/09/10 07:38:56;;;;;;;24.70;16.27;;;;;;;15.21;100.00;100828.03;5011346;28;20033;-86
2022/09/10 07:41:22;;;;;;;21.73;15.70;;;;;;;15.20;100.00;100820.78;5037814;28;20116;-85
2022/09/10 07:43:52;;;;;;;24.55;15.77;;;;;;;15.24;100.00;100822.25;5018069;28;20017;-87
2022/09/10 07:46:19;;;;;;;23.35;16.40;;;;;;;15.34;100.00;100827.72;5025109;28;20057;-87
2022/09/10 07:48:50;;;;;;;27.05;17.20;;;;;;;15.37;100.00;100827.47;5011449;28;20052;-86
2022/09/10 07:51:17;;;;;;;22.23;17.77;;;;;;;15.46;100.00;100838.44;5009282;28;20037;-86
2022/09/10 07:53:44;;;;;;;26.20;19.85;;;;;;;15.52;100.00;100834.25;5043052;28;20091;-86
2022/09/10 07:56:11;;;;;;;23.02;17.90;;;;;;;15.65;100.00;100851.31;5026389;28;20392;-86
2022/09/10 07:58:38;;;;;;;25.52;18.77;;;;;;;15.69;100.00;100844.53;5010384;28;20435;-86
2022/09/10 08:01:08;;;;;;;24.23;18.08;;;;;;;15.70;100.00;100850.88;5011572;28;20603;-86
2022/09/10 08:03:34;;;;;;;24.95;18.08;;;;;;;15.72;100.00;100851.63;5012075;28;20021;-87
2022/09/10 08:06:00;;;;;;;25.15;18.45;;;;;;;15.70;100.00;100856.38;5010120;28;20091;-87
2022/09/10 08:08:30;;;;;;;27.38;18.48;;;;;;;15.75;100.00;100857.66;5010251;28;20040;-87
2022/09/10 08:11:08;;;;;;;25.52;19.15;;;;;;;15.88;100.00;100864.75;5007975;28;20037;-87
2022/09/10 08:13:37;;;;;;;25.35;19.17;;;;;;;15.92;100.00;100858.84;5010001;28;20125;-86
2022/09/10 08:16:05;;;;;;;24.05;19.85;;;;;;;15.99;100.00;100861.84;5012339;28;20156;-86
2022/09/10 08:18:31;;;;;;;30.20;21.60;;;;;;;16.06;99.68;100865.75;5012559;28;20025;-87
2022/09/10 08:20:59;;;;;;;29.25;21.00;;;;;;;16.15;98.45;100861.28;4993971;28;20041;-86
2022/09/10 08:23:25;;;;;;;30.63;21.52;;;;;;;16.24;98.82;100869.50;4989570;28;20030;-87
2022/09/10 08:25:51;;;;;;;27.25;21.25;;;;;;;16.28;98.87;100870.06;5024898;28;20096;-87
2022/09/10 08:28:18;;;;;;;30.63;20.85;;;;;;;16.33;98.54;100885.06;5010090;28;20029;-87
2022/09/10 08:31:00;;;;;;;27.58;20.90;;;;;;;16.35;98.66;100878.56;4993619;28;20034;-86
2022/09/10 08:33:30;;;;;;;31.92;22.50;;;;;;;16.38;98.27;100884.63;5011389;28;20112;-87
2022/09/10 08:35:57;;;;;;;25.88;19.58;;;;;;;16.47;98.55;100893.88;5007934;28;20065;-87
2022/09/10 08:38:25;;;;;;;27.75;20.00;;;;;;;16.52;98.07;100897.91;4990883;28;20536;-87
2022/09/10 08:40:51;;;;;;;28.05;20.00;;;;;;;16.55;97.67;100894.88;5011167;28;20083;-87
2022/09/10 08:43:28;;;;;;;26.23;20.23;;;;;;;16.67;97.78;100903.78;4991586;28;20035;-87
2022/09/10 08:45:55;;;;;;;24.23;19.60;;;;;;;16.80;98.20;100898.00;4991566;28;20041;-87
2022/09/10 08:48:24;;;;;;;28.02;18.83;;;;;;;16.87;97.32;100901.00;5009752;28;20029;-87
2022/09/10 08:50:54;;;;;;;19.52;16.95;;;;;;;16.95;96.26;100915.72;4976070;28;20038;-87
2022/09/10 08:53:48;;;;;;;19.83;16.23;;;;;;;17.04;96.49;100913.94;5007495;28;20025;-87
2022/09/10 08:56:18;;;;;;;19.08;14.90;;;;;;;17.06;95.70;100917.41;5010943;28;20037;-88
2022/09/10 08:58:54;;;;;;;18.20;15.23;;;;;;;16.98;96.14;100909.94;4991159;28;20107;-87
2022/09/10 09:01:46;;;;;;;15.75;13.90;;;;;;;16.93;95.69;100919.66;4991794;28;20076;-87
2022/09/10 09:04:42;;;;;;;16.48;13.18;;;;;;;16.90;95.88;100919.94;4992608;28;20038;-87
2022/09/10 09:07:13;;;;;;;16.25;12.75;;;;;;;16.79;95.15;100923.75;4956670;28;20076;-87
2022/09/10 09:09:40;;;;;;;;;;;;;;;16.79;95.80;100924.59;4992427;28;20081;-87
2022/09/10 09:12:27;;;;;;;14.35;11.57;;;;;;;16.69;95.75;100922.84;5008036;28;20292;-86
2022/09/10 09:15:06;;;;;;;14.77;11.98;;;;;;;16.63;96.50;100921.56;5009314;28;20408;-87
2022/09/10 09:18:02;;;;;;;17.83;13.18;;;;;;;16.55;96.74;100922.34;5008556;28;20120;-87
2022/09/10 09:20:59;;;;;;;19.65;12.90;;;;;;;16.62;97.32;100928.09;4975917;28;20184;-86
2022/09/10 09:23:50;;;;;;;19.80;13.82;;;;;;;16.69;96.39;100925.59;5007102;28;20033;-86
2022/09/10 09:26:18;;;;;;;21.38;13.75;;;;;;;16.80;97.65;100917.22;5028381;28;20485;-87
2022/09/10 09:29:21;;;;;;;16.45;14.07;;;;;;;16.97;96.99;100927.44;4978871;28;20481;-87
2022/09/10 09:31:51;;;;;;;17.67;13.43;;;;;;;17.05;96.84;100933.03;4976705;28;20091;-87
2022/09/10 09:34:31;;;;;;;16.75;14.07;;;;;;;17.09;95.63;100930.84;4975304;28;20465;-87
2022/09/10 09:37:02;;;;;;;19.25;14.32;;;;;;;17.14;94.84;100936.75;4990850;28;20036;-87
2022/09/10 09:39:44;;;;;;;19.35;13.77;;;;;;;17.21;95.44;100932.41;4990473;28;20034;-87
2022/09/10 09:42:37;;;;;;;19.08;12.77;;;;;;;17.27;95.62;100934.53;4974110;28;20045;-87
2022/09/10 09:45:35;;;;;;;17.65;13.20;;;;;;;17.36;95.89;100931.88;5006614;28;20529;-87
2022/09/10 09:48:05;;;;;;;15.23;12.30;;;;;;;17.28;94.81;100938.13;5002350;28;20508;-87
2022/09/10 09:50:36;;;;;;;17.02;12.82;;;;;;;17.32;95.72;100942.31;4992139;28;20029;-87
2022/09/10 09:53:01;;;;;;;17.27;13.15;;;;;;;17.30;94.98;100926.00;4989156;28;20033;-87
2022/09/10 09:55:50;;;;;;;17.88;11.88;;;;;;;17.34;94.95;100929.28;5003929;28;20478;-87
2022/09/10 09:58:28;;;;;;;16.42;11.95;;;;;;;17.34;95.01;100932.03;5010454;28;20092;-87
2022/09/10 10:01:08;;;;;;;15.15;12.27;;;;;;;17.37;96.01;100925.38;5008633;28;20077;-88
2022/09/10 10:03:52;;;;;;;15.70;12.15;;;;;;;17.37;96.06;100926.22;4991173;28;20042;-86
2022/09/10 10:06:21;;;;;;;17.40;12.27;;;;;;;17.44;95.27;100927.34;4975278;28;20485;-88
2022/09/10 10:09:05;;;;;;;14.35;11.05;;;;;;;17.49;95.36;100935.16;4981513;28;20124;-87
2022/09/10 10:11:41;;;;;;;17.48;12.18;;;;;;;17.68;96.52;100928.66;4990677;28;20208;-87
2022/09/10 10:14:20;;;;;;;17.95;11.38;;;;;;;18.03;95.29;100947.09;4998435;28;20045;-88
2022/09/10 10:16:51;;;;;;;15.93;10.63;;;;;;;18.38;95.35;100964.66;4974416;28;20489;-88
2022/09/10 10:19:37;;;;;;;12.80;10.10;;;;;;;18.47;92.87;100948.03;5005687;28;20041;-87
2022/09/10 10:22:18;;;;;;;15.95;9.73;;;;;;;18.53;92.33;100954.78;5005732;28;20063;-88
2022/09/10 10:24:45;;;;;;;13.40;9.30;;;;;;;18.46;92.17;100950.91;5024638;28;20489;-88
2022/09/10 10:27:24;;;;;;;14.88;8.27;;;;;;;18.43;92.86;100949.38;5005933;28;20042;-88
2022/09/10 10:29:59;;;;;;;12.07;8.77;;;;;;;18.35;91.52;100930.88;5007206;28;20062;-88
2022/09/10 10:32:37;;;;;;;11.18;7.43;;;;;;;18.22;91.05;100937.81;4991035;28;20042;-88
2022/09/10 10:35:40;;;;;;;12.15;7.10;;;;;;;18.23;91.91;100948.69;4991691;28;20117;-88
2022/09/10 10:38:11;;;;;;;10.43;7.28;;;;;;;18.14;91.53;100954.25;5006269;28;20041;-87
2022/09/10 10:40:47;;;;;;;13.75;6.95;;;;;;;18.03;91.52;100956.22;5023435;28;20052;-88
2022/09/10 10:43:42;;;;;;;8.98;7.05;;;;;;;17.99;91.83;100959.44;4990231;28;20034;-88
2022/09/10 10:46:19;;;;;;;12.20;7.70;;;;;;;17.84;91.58;100962.75;4990457;28;20124;-89
2022/09/10 10:49:31;;;;;;;15.13;7.78;;;;;;;17.80;92.39;100964.06;5004892;28;20033;-88
2022/09/10 10:52:09;;;;;;;14.27;8.63;;;;;;;17.72;92.84;100969.47;5004654;28;20060;-87
2022/09/10 10:54:53;;;;;;;14.38;8.73;;;;;;;17.69;93.87;100975.28;5005183;28;20044;-88
2022/09/10 10:57:54;;;;;;;9.50;7.30;;;;;;;17.66;93.29;100974.72;5022995;28;20038;-87
2022/09/10 11:00:20;;;;;;;10.32;8.27;;;;;;;17.55;93.72;100968.41;5023576;28;20038;-87
2022/09/10 11:03:10;;;;;;;13.85;8.10;;;;;;;17.49;94.08;100981.91;4994112;28;20201;-89
2022/09/10 11:05:40;;;;;;;13.23;8.27;;;;;;;17.43;94.82;100985.25;4994459;28;20513;-89
2022/09/10 11:08:22;;;;;;;14.52;7.65;;;;;;;17.29;95.50;100981.97;5010038;28;20087;-88
2022/09/10 11:11:14;;;;;;;13.07;7.80;;;;;;;17.23;94.93;100988.09;5009554;28;20045;-87
2022/09/10 11:13:53;;;;;;;9.82;7.03;;;;;;;17.19;95.09;100986.66;4988467;28;20054;-87
2022/09/10 11:16:24;;;;;;;9.63;6.72;;;;;;;17.19;95.21;100988.53;4993428;28;20033;-88
2022/09/10 11:18:53;;;;;;;9.02;6.43;;;;;;;17.24;95.24;100981.56;4991046;28;20504;-87
2022/09/10 11:21:37;;;;;;;9.15;6.00;;;;;;;17.29;94.98;100981.97;5012541;28;20488;-87
2022/09/10 11:24:28;;;;;;;7.75;5.63;;;;;;;17.31;94.92;100981.84;4995534;28;20199;-87
2022/09/10 11:27:12;;;;;;;14.30;6.00;;;;;;;17.37;95.05;100989.47;5012616;28;20116;-87
2022/09/10 11:29:51;;;;;;;10.00;5.65;;;;;;;17.46;94.50;100984.97;5043101;28;20033;-88